createdAt,value
2022-11-12T00:03:16.413Z,27.70
2022-11-12T00:06:17.919Z,29.40
2022-11-12T00:09:19.809Z,29.00
2022-11-12T00:12:21.427Z,25.30
2022-11-12T00:15:23.194Z,20.40
2022-11-12T00:18:24.873Z,24.50
2022-11-12T00:21:26.843Z,23.40
2022-11-12T00:24:28.530Z,30.20
2022-11-12T00:27:32.837Z,24.30
2022-11-12T00:30:36.728Z,27.70
2022-11-12T00:33:43.183Z,23.80
2022-11-12T00:36:44.481Z,22.80
2022-11-12T00:39:47.017Z,28.10
2022-11-12T00:42:50.254Z,31.50
2022-11-12T00:45:52.098Z,26.10
2022-11-12T00:48:53.765Z,24.20
2022-11-12T00:51:55.420Z,22.10
2022-11-12T00:54:56.718Z,24.40
2022-11-12T00:57:59.688Z,24.20
2022-11-12T01:01:10.095Z,23.70
2022-11-12T01:04:11.653Z,22.60
2022-11-12T01:07:13.146Z,24.50
2022-11-12T01:10:14.882Z,25.00
2022-11-12T01:13:16.204Z,24.50
2022-11-12T01:16:21.903Z,25.70
2022-11-12T01:19:23.564Z,24.00
2022-11-12T01:22:25.512Z,26.80
2022-11-12T01:25:27.053Z,26.10
2022-11-12T01:28:29.407Z,25.10
2022-11-12T01:31:36.782Z,26.90
2022-11-12T01:34:38.191Z,28.40
2022-11-12T01:37:39.760Z,28.50
2022-11-12T01:40:41.233Z,23.00
2022-11-12T01:43:42.969Z,27.80
2022-11-12T01:46:57.725Z,27.10
2022-11-12T01:50:20.189Z,21.60
2022-11-12T01:53:25.069Z,23.40
2022-11-12T01:56:29.194Z,23.10
2022-11-12T01:59:38.555Z,22.00
2022-11-12T02:02:43.550Z,22.50
2022-11-12T02:05:48.672Z,18.50
2022-11-12T02:08:51.730Z,20.10
2022-11-12T02:11:53.287Z,20.50
2022-11-12T02:14:54.824Z,20.80
2022-11-12T02:17:56.490Z,22.00
2022-11-12T02:21:03.535Z,14.80
2022-11-12T02:24:25.041Z,16.90
2022-11-12T02:27:27.998Z,20.00
2022-11-12T02:30:40.490Z,18.90
2022-11-12T02:33:42.102Z,17.70
2022-11-12T02:36:43.463Z,24.00
2022-11-12T02:39:45.002Z,18.10
2022-11-12T02:42:46.147Z,25.90
2022-11-12T02:45:47.876Z,24.20
2022-11-12T02:48:49.319Z,24.60
2022-11-12T02:51:50.750Z,18.80
2022-11-12T02:54:52.291Z,29.20
2022-11-12T02:57:58.341Z,30.00
2022-11-12T03:01:00.202Z,23.60
2022-11-12T03:04:01.825Z,25.20
2022-11-12T03:07:03.197Z,31.20
2022-11-12T03:10:06.183Z,29.60
2022-11-12T03:13:07.791Z,28.70
2022-11-12T03:16:09.952Z,29.00
2022-11-12T03:19:11.579Z,30.90
2022-11-12T03:22:13.369Z,29.70
2022-11-12T03:25:14.760Z,29.80
2022-11-12T03:28:17.104Z,29.50
2022-11-12T03:31:18.978Z,23.40
2022-11-12T03:34:20.438Z,28.40
2022-11-12T03:37:22.149Z,29.20
2022-11-12T03:40:23.725Z,28.60
2022-11-12T03:43:25.737Z,28.00
2022-11-12T03:46:29.287Z,29.30
2022-11-12T03:49:30.760Z,27.70
2022-11-12T03:52:32.055Z,27.30
2022-11-12T03:55:34.248Z,26.80
2022-11-12T03:58:35.833Z,28.50
2022-11-12T04:01:37.858Z,30.20
2022-11-12T04:04:57.799Z,30.60
2022-11-12T04:08:20.225Z,27.70
2022-11-12T04:11:21.811Z,27.70
2022-11-12T04:14:23.192Z,32.30
2022-11-12T04:17:44.482Z,28.10
2022-11-12T04:21:04.747Z,30.10
2022-11-12T04:24:06.496Z,24.40
2022-11-12T04:27:11.113Z,29.10
2022-11-12T04:30:19.541Z,29.50
2022-11-12T04:33:21.140Z,29.20
2022-11-12T04:36:22.474Z,28.30
2022-11-12T04:39:23.811Z,28.20
2022-11-12T04:42:44.184Z,35.20
2022-11-12T04:45:48.277Z,27.90
2022-11-12T04:48:49.940Z,26.60
2022-11-12T04:52:06.329Z,29.90
2022-11-12T04:55:08.569Z,25.60
2022-11-12T04:58:10.392Z,26.00
2022-11-12T05:01:12.461Z,26.30
2022-11-12T05:04:13.682Z,28.50
2022-11-12T05:07:15.365Z,23.00
2022-11-12T05:10:20.343Z,26.30
2022-11-12T05:13:21.712Z,28.10
2022-11-12T05:16:23.319Z,28.70
2022-11-12T05:19:25.272Z,25.70
2022-11-12T05:22:42.868Z,23.90
2022-11-12T05:25:47.177Z,23.90
2022-11-12T05:28:48.718Z,23.80
2022-11-12T05:31:50.354Z,29.80
2022-11-12T05:34:51.743Z,22.60
2022-11-12T05:37:53.234Z,25.90
2022-11-12T05:40:54.773Z,22.20
2022-11-12T05:43:56.556Z,19.70
2022-11-12T05:46:58.442Z,22.50
2022-11-12T05:50:00.044Z,20.70
2022-11-12T05:53:01.760Z,21.20
2022-11-12T05:56:04.517Z,20.70
2022-11-12T05:59:08.929Z,22.10
2022-11-12T06:02:10.140Z,20.20
2022-11-12T06:05:12.004Z,23.10
2022-11-12T06:08:13.337Z,21.80
2022-11-12T06:11:15.417Z,21.10
2022-11-12T06:14:17.035Z,25.20
2022-11-12T06:17:18.736Z,21.60
2022-11-12T06:20:21.043Z,22.70
2022-11-12T06:23:22.273Z,19.40
2022-11-12T06:26:25.970Z,23.10
2022-11-12T06:29:27.285Z,22.40
2022-11-12T06:32:28.721Z,19.50
2022-11-12T06:35:30.467Z,21.10
2022-11-12T06:38:39.971Z,21.50
2022-11-12T06:41:41.347Z,22.50
2022-11-12T06:44:43.270Z,21.50
2022-11-12T06:47:45.119Z,18.50
2022-11-12T06:50:46.760Z,19.60
2022-11-12T06:53:49.529Z,21.70
2022-11-12T06:56:50.699Z,17.70
2022-11-12T06:59:52.133Z,19.20
2022-11-12T07:02:54.833Z,23.60
2022-11-12T07:05:56.710Z,24.80
2022-11-12T07:08:58.045Z,24.40
2022-11-12T07:11:59.563Z,23.50
2022-11-12T07:15:01.168Z,23.70
2022-11-12T07:18:02.868Z,19.20
2022-11-12T07:21:11.931Z,20.00
2022-11-12T07:24:13.622Z,17.30
2022-11-12T07:27:15.365Z,20.50
2022-11-12T07:30:17.929Z,19.60
2022-11-12T07:33:19.316Z,20.20
2022-11-12T07:36:21.777Z,19.60
2022-11-12T07:39:23.196Z,18.10
2022-11-12T07:42:24.806Z,20.90
2022-11-12T07:45:26.244Z,19.30
2022-11-12T07:48:29.740Z,18.70
2022-11-12T07:51:31.159Z,23.40
2022-11-12T07:54:32.669Z,18.80
2022-11-12T07:57:34.345Z,19.90
2022-11-12T08:00:35.555Z,18.20
2022-11-12T08:03:37.526Z,20.80
2022-11-12T08:06:39.417Z,24.70
2022-11-12T08:09:41.128Z,22.60
2022-11-12T08:12:42.761Z,24.10
2022-11-12T08:15:49.439Z,23.70
2022-11-12T08:18:53.514Z,25.60
2022-11-12T08:21:55.285Z,24.90
2022-11-12T08:25:00.134Z,26.50
2022-11-12T08:28:03.249Z,27.20
2022-11-12T08:31:10.872Z,26.50
2022-11-12T08:34:12.659Z,25.40
2022-11-12T08:37:15.016Z,29.10
2022-11-12T08:40:16.367Z,23.50
2022-11-12T08:43:18.214Z,27.20
2022-11-12T08:46:19.579Z,24.80
2022-11-12T08:49:21.296Z,24.90
2022-11-12T08:52:25.713Z,26.10
2022-11-12T08:55:27.547Z,25.00
2022-11-12T08:58:29.504Z,20.60
2022-11-12T09:01:31.096Z,25.30
2022-11-12T09:04:33.084Z,30.60
2022-11-12T09:07:49.334Z,25.40
2022-11-12T09:10:52.162Z,33.20
2022-11-12T09:13:54.590Z,30.90
2022-11-12T09:16:56.061Z,31.50
2022-11-12T09:19:57.569Z,26.10
2022-11-12T09:23:01.890Z,25.90
2022-11-12T09:26:04.431Z,29.70
2022-11-12T09:29:05.770Z,30.30
2022-11-12T09:32:06.966Z,29.20
2022-11-12T09:35:09.256Z,25.60
2022-11-12T09:38:10.626Z,31.20
2022-11-12T09:41:22.522Z,26.00
2022-11-12T09:44:24.823Z,27.10
2022-11-12T09:48:12.773Z,31.10
2022-11-12T09:51:28.591Z,27.50
2022-11-12T09:54:35.422Z,30.60
2022-11-12T09:57:37.702Z,27.50
2022-11-12T10:00:45.105Z,30.00
2022-11-12T10:04:16.700Z,27.30
2022-11-12T10:07:47.615Z,29.80
2022-11-12T10:10:58.463Z,29.70
2022-11-12T10:14:05.848Z,29.00
2022-11-12T10:17:31.611Z,26.30
2022-11-12T10:20:41.458Z,32.40
2022-11-12T10:23:46.496Z,28.80
2022-11-12T10:26:48.736Z,30.90
2022-11-12T10:30:02.756Z,32.40
2022-11-12T10:33:04.829Z,27.90
2022-11-12T10:36:31.115Z,32.60
2022-11-12T10:39:44.328Z,29.20
2022-11-12T10:43:01.574Z,26.10
2022-11-12T10:46:21.271Z,28.90
2022-11-12T10:49:25.279Z,31.00
2022-11-12T10:52:26.755Z,28.10
2022-11-12T10:55:34.396Z,26.80
2022-11-12T10:58:35.938Z,27.50
2022-11-12T11:01:43.048Z,26.10
2022-11-12T11:04:48.928Z,31.50
2022-11-12T11:07:51.390Z,30.40
2022-11-12T11:11:14.930Z,45.30
2022-11-12T11:14:22.296Z,48.30
2022-11-12T11:17:23.495Z,88.40
2022-11-12T11:20:35.922Z,42.00
2022-11-12T11:24:00.526Z,42.90
2022-11-12T11:27:24.278Z,53.50
2022-11-12T11:30:26.062Z,39.20
2022-11-12T11:33:56.596Z,49.30
2022-11-12T11:37:16.031Z,32.50
2022-11-12T11:40:26.834Z,58.20
2022-11-12T11:43:44.654Z,38.90
2022-11-12T11:47:33.964Z,35.60
2022-11-12T11:50:50.645Z,30.00
2022-11-12T11:54:06.043Z,34.70
2022-11-12T11:57:27.316Z,34.40
2022-11-12T12:01:00.612Z,28.30
2022-11-12T12:04:20.367Z,53.80
2022-11-12T12:07:32.514Z,95.20
2022-11-12T12:11:08.087Z,84.30
2022-11-12T12:14:27.888Z,70.50
2022-11-12T12:17:50.762Z,33.20
2022-11-12T12:21:02.726Z,28.40
2022-11-12T12:24:27.390Z,32.70
2022-11-12T12:27:36.613Z,37.50
2022-11-12T12:30:45.596Z,31.10
2022-11-12T12:33:53.088Z,30.20
2022-11-12T12:37:05.039Z,29.20
2022-11-12T12:40:19.913Z,26.20
2022-11-12T12:43:41.917Z,26.00
2022-11-12T12:46:52.055Z,25.50
2022-11-12T12:49:54.925Z,26.60
2022-11-12T12:53:17.018Z,25.20
2022-11-12T12:56:24.403Z,26.80
2022-11-12T12:59:26.206Z,28.80
2022-11-12T13:02:28.142Z,32.50
2022-11-12T13:05:40.381Z,28.60
2022-11-12T13:08:42.848Z,29.00
2022-11-12T13:12:02.930Z,33.40
2022-11-12T13:15:14.942Z,27.90
2022-11-12T13:18:38.408Z,33.00
2022-11-12T13:25:04.044Z,28.00
2022-11-12T13:28:08.687Z,31.10
2022-11-12T13:31:29.497Z,34.20
2022-11-12T13:34:33.620Z,30.90
2022-11-12T13:37:35.490Z,36.20
2022-11-12T13:40:46.527Z,35.90
2022-11-12T13:43:49.487Z,37.60
2022-11-12T13:46:52.787Z,32.80
2022-11-12T13:49:58.700Z,33.20
2022-11-12T13:53:01.468Z,34.80
2022-11-12T13:56:03.417Z,34.00
2022-11-12T13:59:23.480Z,35.50
2022-11-12T14:02:27.275Z,34.10
2022-11-12T14:05:32.294Z,34.40
2022-11-12T14:08:43.040Z,35.10
2022-11-12T14:11:53.995Z,32.80
2022-11-12T14:15:04.698Z,34.60
2022-11-12T14:18:21.121Z,33.40
2022-11-12T14:21:22.562Z,32.70
2022-11-12T14:24:24.203Z,33.00
2022-11-12T14:27:28.274Z,34.20
2022-11-12T14:30:33.251Z,35.90
2022-11-12T14:33:34.655Z,38.80
2022-11-12T14:36:38.228Z,37.00
2022-11-12T14:39:43.090Z,39.30
2022-11-12T14:42:45.440Z,39.10
2022-11-12T14:45:51.467Z,41.80
2022-11-12T14:49:01.090Z,48.40
2022-11-12T14:52:34.752Z,46.40
2022-11-12T14:55:37.968Z,50.30
2022-11-12T14:58:40.178Z,50.20
2022-11-12T15:05:32.180Z,45.70
2022-11-12T15:08:37.239Z,40.40
2022-11-12T15:11:48.154Z,37.50
2022-11-12T15:14:50.616Z,37.30
2022-11-12T15:18:16.512Z,38.50
2022-11-12T15:21:28.677Z,39.20
2022-11-12T15:24:37.803Z,34.60
2022-11-12T15:27:41.608Z,35.90
2022-11-12T15:31:01.046Z,37.40
2022-11-12T15:34:26.221Z,33.10
2022-11-12T15:37:33.619Z,27.80
2022-11-12T15:40:45.851Z,30.00
2022-11-12T15:43:47.297Z,34.30
2022-11-12T15:46:49.042Z,32.20
2022-11-12T15:49:56.143Z,33.70
2022-11-12T15:52:58.302Z,35.80
2022-11-12T15:56:00.441Z,31.50
2022-11-12T15:59:03.738Z,32.60
2022-11-12T16:02:11.392Z,32.10
2022-11-12T16:05:15.403Z,28.50
2022-11-12T16:08:17.440Z,29.10
2022-11-12T16:11:37.408Z,34.10
2022-11-12T16:14:40.372Z,29.30
2022-11-12T16:17:42.230Z,30.70
2022-11-12T16:20:43.553Z,32.90
2022-11-12T16:23:45.197Z,29.00
2022-11-12T16:26:46.886Z,29.50
2022-11-12T16:29:48.274Z,32.10
2022-11-12T16:32:49.845Z,30.90
2022-11-12T16:35:51.559Z,29.00
2022-11-12T16:38:52.995Z,31.50
2022-11-12T16:41:54.945Z,30.30
2022-11-12T16:44:56.575Z,35.90
2022-11-12T16:47:58.457Z,29.00
2022-11-12T16:51:00.769Z,31.90
2022-11-12T16:54:02.739Z,33.50
2022-11-12T16:57:04.383Z,33.00
2022-11-12T17:00:09.546Z,35.30
2022-11-12T17:03:13.317Z,37.30
2022-11-12T17:06:15.145Z,30.70
2022-11-12T17:09:17.093Z,33.60
2022-11-12T17:12:18.528Z,30.60
2022-11-12T17:15:20.293Z,33.50
2022-11-12T17:18:21.681Z,32.20
2022-11-12T17:21:23.731Z,32.20
2022-11-12T17:24:27.043Z,32.40
2022-11-12T17:27:28.788Z,32.30
2022-11-12T17:30:30.252Z,39.00
2022-11-12T17:33:32.505Z,32.60
2022-11-12T17:36:38.076Z,37.10
2022-11-12T17:39:44.695Z,29.60
2022-11-12T17:42:46.118Z,31.50
2022-11-12T17:45:55.634Z,31.70
2022-11-12T17:48:57.268Z,35.70
2022-11-12T17:51:58.810Z,33.30
2022-11-12T17:55:00.461Z,35.30
2022-11-12T17:58:02.302Z,34.80
2022-11-12T18:01:31.240Z,35.70
2022-11-12T18:04:33.016Z,38.50
2022-11-12T18:07:34.749Z,39.30
2022-11-12T18:10:36.903Z,39.30
2022-11-12T18:13:38.750Z,37.10
2022-11-12T18:16:41.213Z,40.80
2022-11-12T18:19:42.649Z,48.20
2022-11-12T18:22:45.933Z,43.70
2022-11-12T18:25:47.745Z,48.40
2022-11-12T18:28:58.305Z,45.40
2022-11-12T18:31:59.936Z,48.20
2022-11-12T18:35:01.433Z,53.40
2022-11-12T18:38:03.347Z,57.20
2022-11-12T18:41:10.574Z,51.30
2022-11-12T18:44:12.362Z,55.80
2022-11-12T18:47:14.183Z,45.60
2022-11-12T18:50:16.572Z,54.20
2022-11-12T18:53:18.311Z,61.20
2022-11-12T18:56:22.138Z,54.70
2022-11-12T18:59:30.693Z,58.80
2022-11-12T19:02:32.333Z,60.00
2022-11-12T19:05:34.995Z,63.70
2022-11-12T19:08:36.900Z,58.50
2022-11-12T19:11:38.499Z,56.90
2022-11-12T19:14:40.038Z,56.60
2022-11-12T19:17:43.015Z,55.90
2022-11-12T19:20:44.550Z,60.50
2022-11-12T19:23:51.383Z,50.60
2022-11-12T19:26:55.420Z,60.90
2022-11-12T19:30:02.617Z,52.60
2022-11-12T19:33:05.187Z,50.40
2022-11-12T19:36:09.901Z,50.60
2022-11-12T19:39:11.430Z,52.30
2022-11-12T19:42:12.921Z,45.50
2022-11-12T19:45:14.773Z,51.60
2022-11-12T19:48:16.523Z,48.40
2022-11-12T19:51:18.235Z,53.20
2022-11-12T19:54:20.016Z,53.20
2022-11-12T19:57:23.004Z,51.70
2022-11-12T20:03:26.491Z,55.00
2022-11-12T20:06:29.955Z,54.60
2022-11-12T20:09:32.233Z,54.30
2022-11-12T20:12:34.575Z,51.70
2022-11-12T20:15:38.690Z,55.60
2022-11-12T20:18:40.287Z,52.90
2022-11-12T20:21:42.104Z,56.50
2022-11-12T20:24:43.596Z,53.80
2022-11-12T20:27:45.167Z,55.90
2022-11-12T20:30:46.883Z,50.80
2022-11-12T20:33:50.288Z,53.70
2022-11-12T20:36:53.923Z,55.80
2022-11-12T20:39:56.817Z,52.50
2022-11-12T20:42:58.373Z,55.80
2022-11-12T20:46:01.433Z,49.00
2022-11-12T20:49:03.089Z,53.20
2022-11-12T20:52:04.937Z,53.70
2022-11-12T20:55:07.281Z,57.30
2022-11-12T20:58:09.945Z,49.90
2022-11-12T21:01:15.528Z,53.60
2022-11-12T21:04:17.056Z,49.80
2022-11-12T21:07:18.530Z,55.50
2022-11-12T21:10:20.499Z,54.50
2022-11-12T21:13:23.818Z,88.60
2022-11-12T21:16:25.528Z,106.00
2022-11-12T21:19:27.274Z,130.50
2022-11-12T21:22:29.722Z,137.60
2022-11-12T21:25:35.467Z,131.20
2022-11-12T21:28:38.452Z,104.60
2022-11-12T21:31:40.186Z,115.00
2022-11-12T21:34:41.551Z,89.20
2022-11-12T21:37:43.125Z,84.70
2022-11-12T21:40:44.796Z,80.30
2022-11-12T21:43:47.049Z,85.70
2022-11-12T21:46:48.691Z,82.20
2022-11-12T21:49:50.226Z,70.00
2022-11-12T21:52:53.012Z,86.70
2022-11-12T21:56:01.510Z,79.00
2022-11-12T21:59:04.529Z,76.70
2022-11-12T22:02:06.443Z,76.00
2022-11-12T22:05:08.471Z,75.80
2022-11-12T22:08:09.886Z,66.30
2022-11-12T22:11:17.687Z,80.60
2022-11-12T22:14:20.160Z,74.80
2022-11-12T22:17:21.358Z,59.30
2022-11-12T22:20:22.901Z,65.90
2022-11-12T22:23:24.578Z,73.50
2022-11-12T22:26:28.316Z,64.20
2022-11-12T22:29:29.724Z,73.00
2022-11-12T22:32:31.753Z,67.20
2022-11-12T22:35:33.805Z,65.20
2022-11-12T22:38:41.071Z,67.70
2022-11-12T22:41:42.593Z,67.40
2022-11-12T22:44:44.405Z,69.10
2022-11-12T22:47:46.000Z,71.10
2022-11-12T22:50:48.777Z,89.50
2022-11-12T22:54:04.124Z,77.70
2022-11-12T22:57:05.916Z,78.30
2022-11-12T23:00:10.272Z,97.50
2022-11-12T23:03:11.796Z,117.80
2022-11-12T23:06:13.555Z,116.90
2022-11-12T23:09:17.363Z,111.80
2022-11-12T23:12:18.882Z,110.30
2022-11-12T23:15:20.762Z,86.50
2022-11-12T23:18:22.170Z,95.10
2022-11-12T23:21:27.358Z,84.80
2022-11-12T23:24:28.992Z,110.50
2022-11-12T23:27:30.373Z,83.00
2022-11-12T23:30:31.675Z,76.10
2022-11-12T23:33:33.367Z,73.90
2022-11-12T23:36:34.887Z,70.50
2022-11-12T23:39:36.535Z,74.70
2022-11-12T23:42:38.376Z,74.00
2022-11-12T23:45:39.815Z,95.90
2022-11-12T23:48:42.286Z,77.50
2022-11-12T23:51:43.917Z,76.10
2022-11-12T23:54:45.664Z,86.90
2022-11-12T23:57:47.357Z,95.30
